createdAt,value
2018-08-03T13:49:01.245Z,32.40
2018-08-03T13:51:32.295Z,32.90
2018-08-03T13:54:06.897Z,32.90
2018-08-03T13:56:36.511Z,32.80
2018-08-03T13:59:06.346Z,33.20
2018-08-03T14:02:44.995Z,33.20
2018-08-03T14:05:13.852Z,33.00
2018-08-03T14:07:42.931Z,33.40
2018-08-03T14:10:11.991Z,32.90
2018-08-03T14:12:40.654Z,33.00
2018-08-03T14:15:09.244Z,33.30
2018-08-03T14:17:37.830Z,33.00
2018-08-03T14:20:07.353Z,32.80
2018-08-03T14:22:36.026Z,32.30
2018-08-03T14:25:05.305Z,32.30
2018-08-03T14:27:34.714Z,32.70
2018-08-03T14:30:04.055Z,32.90
2018-08-03T14:32:32.628Z,33.00
2018-08-03T14:35:02.010Z,33.30
2018-08-03T14:37:31.810Z,33.40
2018-08-03T14:40:03.306Z,33.20
2018-08-03T14:42:32.289Z,33.20
2018-08-03T14:45:02.459Z,33.20
2018-08-03T14:47:34.480Z,33.00
2018-08-03T14:50:03.354Z,33.20
2018-08-03T14:52:33.011Z,32.80
2018-08-03T14:55:02.571Z,32.90
2018-08-03T14:57:31.324Z,32.90
2018-08-03T14:59:59.906Z,32.80
2018-08-03T15:02:28.543Z,32.50
2018-08-03T15:04:57.077Z,33.10
2018-08-03T15:07:26.403Z,32.70
2018-08-03T15:09:55.155Z,33.00
2018-08-03T15:12:23.823Z,32.50
2018-08-03T15:17:20.783Z,33.10
2018-08-03T15:19:49.608Z,33.20
2018-08-03T15:22:19.369Z,33.10
2018-08-03T15:24:48.782Z,33.30
2018-08-03T15:27:19.793Z,33.00
2018-08-03T15:29:50.059Z,33.20
2018-08-03T15:34:48.177Z,33.30
2018-08-03T15:37:17.548Z,33.30
2018-08-03T15:45:53.907Z,33.50
2018-08-03T15:48:41.031Z,33.50
2018-08-03T15:51:19.552Z,33.40
2018-08-03T15:56:41.435Z,32.30
2018-08-03T15:59:48.865Z,32.40
2018-08-03T16:02:26.753Z,32.40
2018-08-03T16:04:58.093Z,32.40
2018-08-03T16:07:39.351Z,32.60
2018-08-03T16:10:12.364Z,32.20
2018-08-03T16:13:04.340Z,32.50
2018-08-03T16:15:33.340Z,32.70
2018-08-03T16:18:04.408Z,32.70
2018-08-03T16:20:43.223Z,32.60
2018-08-03T16:23:23.329Z,32.50
2018-08-03T16:28:29.784Z,32.30
2018-08-03T16:31:06.539Z,32.40
2018-08-03T16:35:05.870Z,32.30
2018-08-03T16:37:46.642Z,32.40
2018-08-03T16:40:17.579Z,32.80
2018-08-03T16:42:59.415Z,32.60
2018-08-03T16:45:28.487Z,32.70
2018-08-03T16:47:58.645Z,32.60
2018-08-03T16:50:28.758Z,32.60
2018-08-03T16:52:58.369Z,32.40
2018-08-03T16:55:43.048Z,31.90
2018-08-03T17:01:47.298Z,31.80
2018-08-03T17:04:17.044Z,31.00
2018-08-03T17:06:52.291Z,30.90
2018-08-03T17:09:22.415Z,30.70
2018-08-03T17:11:54.129Z,30.50
2018-08-03T17:14:25.363Z,30.30
2018-08-03T17:16:54.196Z,30.30
2018-08-03T17:19:22.723Z,30.30
2018-08-03T17:21:55.209Z,30.00
2018-08-03T17:27:30.546Z,29.70
2018-08-03T17:30:01.231Z,29.60
2018-08-03T17:32:33.499Z,29.50
2018-08-03T17:35:03.885Z,29.20
2018-08-03T17:37:33.175Z,29.50
2018-08-03T17:40:01.684Z,29.40
2018-08-03T17:42:31.267Z,29.50
2018-08-03T17:45:11.064Z,29.50
2018-08-03T17:47:46.055Z,29.10
2018-08-03T17:50:15.450Z,29.00
2018-08-03T17:55:51.268Z,28.60
2018-08-03T17:58:20.138Z,28.50
2018-08-03T18:00:49.849Z,28.20
2018-08-03T18:03:18.458Z,28.20
2018-08-03T18:05:47.665Z,28.00
2018-08-03T18:08:17.301Z,28.00
2018-08-03T18:10:46.591Z,27.90
2018-08-03T18:13:15.223Z,27.80
2018-08-03T18:15:44.435Z,27.80
2018-08-03T18:18:16.067Z,27.70
2018-08-03T18:20:45.561Z,27.50
2018-08-03T18:23:14.096Z,27.50
2018-08-03T18:25:43.334Z,27.40
2018-08-03T18:28:20.890Z,27.10
2018-08-03T18:30:52.449Z,27.00
2018-08-03T18:33:23.435Z,26.70
2018-08-03T18:35:53.562Z,26.60
2018-08-03T18:38:24.603Z,26.60
2018-08-03T18:43:33.078Z,26.30
2018-08-03T18:46:09.196Z,26.40
2018-08-03T18:48:38.403Z,26.20
2018-08-03T18:51:08.065Z,26.10
2018-08-03T18:53:37.717Z,26.10
2018-08-03T18:56:13.899Z,25.90
2018-08-03T18:58:46.038Z,25.80
2018-08-03T19:01:17.317Z,25.60
2018-08-03T19:03:51.419Z,25.40
2018-08-03T19:06:35.355Z,25.40
2018-08-03T19:09:09.597Z,25.20
2018-08-03T19:11:38.933Z,25.30
2018-08-03T19:14:09.666Z,25.20
2018-08-03T19:16:43.833Z,25.10
2018-08-03T19:19:25.210Z,24.90
2018-08-03T19:21:55.468Z,24.80
2018-08-03T19:24:29.606Z,24.80
2018-08-03T19:27:22.612Z,24.70
2018-08-03T19:32:43.655Z,24.50
2018-08-03T19:41:18.359Z,24.20
2018-08-03T19:46:39.358Z,24.20
2018-08-03T19:49:27.163Z,24.00
2018-08-03T19:55:29.545Z,23.80
2018-08-03T19:58:21.982Z,23.70
2018-08-03T20:00:58.493Z,23.70
2018-08-03T20:03:28.768Z,23.80
2018-08-03T20:14:47.710Z,23.60
2018-08-03T20:17:19.678Z,23.60
2018-08-03T20:20:14.930Z,23.60
2018-08-03T20:22:58.078Z,23.40
2018-08-03T20:25:57.719Z,23.30
2018-08-03T20:29:38.779Z,23.40
2018-08-03T20:32:25.411Z,23.40
2018-08-03T20:38:03.517Z,23.10
2018-08-03T20:43:52.809Z,23.10
2018-08-03T20:46:32.094Z,23.00
2018-08-03T20:49:11.202Z,22.90
2018-08-03T20:51:59.617Z,22.90
2018-08-03T20:54:38.267Z,22.90
2018-08-03T20:57:08.989Z,22.70
2018-08-03T20:59:41.167Z,22.60
2018-08-03T21:02:27.227Z,22.40
2018-08-03T21:04:56.315Z,22.50
2018-08-03T21:07:27.848Z,22.40
2018-08-03T21:10:06.847Z,22.30
2018-08-03T21:12:47.677Z,22.40
2018-08-03T21:15:34.103Z,22.40
2018-08-03T21:18:20.007Z,22.30
2018-08-03T21:20:51.208Z,22.30
2018-08-03T21:23:44.047Z,22.20
2018-08-03T21:26:15.821Z,22.20
2018-08-03T21:28:45.199Z,22.10
2018-08-03T21:31:18.256Z,22.00
2018-08-03T21:33:49.096Z,22.00
2018-08-03T21:36:20.593Z,22.00
2018-08-03T21:38:50.027Z,22.00
2018-08-03T21:41:18.564Z,21.90
2018-08-03T21:43:49.837Z,21.90
2018-08-03T21:46:27.725Z,21.80
2018-08-03T21:48:56.800Z,21.70
2018-08-03T21:51:25.992Z,21.70
2018-08-03T21:54:01.541Z,21.80
2018-08-03T21:56:35.697Z,21.80
2018-08-03T21:59:08.230Z,21.80
2018-08-03T22:01:46.603Z,21.80
2018-08-03T22:04:17.231Z,21.70
2018-08-03T22:06:46.661Z,21.70
2018-08-03T22:09:20.963Z,22.00
2018-08-03T22:11:54.090Z,22.10
2018-08-03T22:14:23.301Z,22.00
2018-08-03T22:16:56.255Z,21.80
2018-08-03T22:19:33.423Z,21.70
2018-08-03T22:22:06.912Z,21.60
2018-08-03T22:24:36.374Z,21.70
2018-08-03T22:27:11.247Z,21.60
2018-08-03T22:29:40.701Z,21.60
2018-08-03T22:32:12.463Z,21.60
2018-08-03T22:37:21.917Z,21.60
2018-08-03T22:39:52.529Z,21.60
2018-08-03T22:42:26.739Z,21.60
2018-08-03T22:44:58.088Z,21.70
2018-08-03T22:47:31.338Z,21.70
2018-08-03T22:50:00.800Z,21.70
2018-08-03T22:52:34.116Z,21.70
2018-08-03T22:55:05.677Z,21.60
2018-08-03T22:57:36.902Z,21.60
2018-08-03T23:00:08.475Z,21.60
2018-08-03T23:02:39.565Z,21.60
2018-08-03T23:05:12.328Z,21.70
2018-08-03T23:07:45.366Z,21.70
2018-08-03T23:10:15.566Z,21.80
2018-08-03T23:12:46.022Z,21.70
2018-08-03T23:15:15.150Z,21.60
2018-08-03T23:17:49.436Z,21.60
2018-08-03T23:20:19.703Z,21.70
2018-08-03T23:22:49.362Z,21.60
2018-08-03T23:25:19.262Z,21.60
2018-08-03T23:27:52.092Z,21.50
2018-08-03T23:30:24.380Z,21.50
2018-08-03T23:32:57.925Z,21.50
2018-08-03T23:35:28.852Z,21.50
2018-08-03T23:37:59.609Z,21.50
2018-08-03T23:40:30.908Z,21.40
2018-08-03T23:43:05.158Z,21.40
2018-08-03T23:45:38.029Z,21.40
2018-08-03T23:48:11.361Z,21.30
2018-08-03T23:50:42.490Z,21.40
2018-08-03T23:53:12.499Z,21.30
2018-08-03T23:55:43.760Z,21.30
2018-08-03T23:58:14.291Z,21.20
